Sebes, Romania
Current Conditions -  °F | °C
As of 11:00 PM on Tuesday 21 Oct 2014 (Local Time) from LRSB Reporting Station
Clear Clear  
Wind Chill: 55°   Ceiling: Unl
Heat Index: 55°   Visibility: 6mi
Dew Point: 52°   Wind: 0mph
Humidity: 88%   Direction: NA
Pressure: 29.8"   Gusts: NA
Location:  45.96°N, 23.57°E
Report Text: LRSB 212000Z 00000KT CAVOK 13/11 Q1009
Loading
Personal Weather Stations






























Interactive Weather Map
Tropical Storm Tracking
New forecast layout! Learn more

10-Day Weather Forecast

Advertisements
Track Severe Weather on mobile